Nome, AK

5:14 AM AKDT on September 21, 2014 (GMT -0800)
Tin City LRRS | Change Station
CLOSE
Current Station
Airport
Location: Tin City,
Elevation: 272 ft
Nearby Weather Stations

Elev 272 ft 65.56 °N, 167.92 °W | Updated 1 day ago

Partly Cloudy
Partly Cloudy
38 °F
Feels Like 31 °F
N
10
Wind Variable Wind from North
Gusts 13 mph

Today
High -- | Low -- °F
--% Chance of Precip.
Yesterday
High -- | Low -- °F
Precip. -- in
8:42 AM 9:05 PM
Waning Crescent, 7% visible
Pressure 29.77 in
Visibility 4.0 miles
Clouds Mostly Cloudy 1100 ft
Windchill 31 °F
Dew Point 33 °F
Humidity 80%
Rainfall 0.01 in
Snow Depth 1 in , 1 in , 0 in
UV 0 out of 12
Pollen Not available.
Air Quality Not available.
Flu Activity Not available.
SPECI PATC 201128Z AUTO 02017KT 4SM -SHRA BKN011 03/03 A2976 RMK AO2 SLP079

More Conditions Fewer Conditions

Pressure 29.77 in
Visibility 4.0 miles
Clouds Mostly Cloudy 1100 ft
Windchill 31 °F
Dew Point 33 °F
Humidity 80%
Rainfall 0.01 in
Snow Depth 1 in , 1 in , 0 in
UV 0 out of 12
Pollen Not available.
Air Quality Not available.
Flu Activity Not available.
SPECI PATC 201128Z AUTO 02017KT 4SM -SHRA BKN011 03/03 A2976 RMK AO2 SLP079

More Conditions Fewer Conditions

10-Day Weather Forecast

Almanac

Astronomy

Sep. 21, 2014 Rise Set
Actual Time 8:42 AM AKDT 9:05 PM AKDT
Civil Twilight 7:53 AM AKDT 9:53 PM AKDT
Nautical Twilight 6:53 AM AKDT 10:53 PM AKDT
Astronomical Twilight 5:43 AM AKDT 12:01 AM AKDT
Moon 5:50 AM AKDT 8:13 PM AKDT
Length of Visible Light 13h 59m
Length of Day
12h 22m
Tomorrow will be 6m 32s shorter.
Waning Crescent, 7% of the Moon is Illuminated
Today
Waning Crescent
Sep 24
New
Oct 1
First Quarter
Oct 8
Full
Oct 15
Last Quarter

Today's Extremes

State Highs State Lows

Community

WunderPhotos

Upload Photos

1,755,136 photos uploaded!

Nearby

Snow Depth

Station Depth Elevation
Upper Chena 1 in 2850 ft
Point Mackenzie 1 in 200 ft
Fort Yukon 0 in 430 ft
Nuka Glacier 164 in 1250 ft
Gobblers Knob 0 in 2030 ft

Earthquake Activity

City Distance Mag. Time & Date
No recent earthquake activity has been reported nearby.
Minimum magnitude displayed is 2.5.

Coastal Water Temperatures

Place Temperature
No Stations Reporting

Nearby Weather Stations